sensor_id;sensor_type;location;lat;lon;timestamp;P1;durP1;ratioP1;P2;durP2;ratioP2
60233;SDS011;49514;43.538;-5.708;2023-06-22T00:02:25;7.88;;;2.80;;
60233;SDS011;49514;43.538;-5.708;2023-06-22T00:04:52;7.25;;;2.70;;
60233;SDS011;49514;43.538;-5.708;2023-06-22T00:07:18;7.50;;;2.80;;
60233;SDS011;49514;43.538;-5.708;2023-06-22T00:09:45;8.60;;;3.33;;
60233;SDS011;49514;43.538;-5.708;2023-06-22T00:12:11;10.57;;;3.22;;
60233;SDS011;49514;43.538;-5.708;2023-06-22T00:14:38;9.07;;;3.03;;
60233;SDS011;49514;43.538;-5.708;2023-06-22T00:17:05;7.43;;;3.22;;
60233;SDS011;49514;43.538;-5.708;2023-06-22T00:19:31;6.93;;;3.00;;
60233;SDS011;49514;43.538;-5.708;2023-06-22T00:22:01;9.00;;;3.50;;
60233;SDS011;49514;43.538;-5.708;2023-06-22T00:24:29;9.52;;;3.67;;
60233;SDS011;49514;43.538;-5.708;2023-06-22T00:26:56;6.50;;;3.20;;
60233;SDS011;49514;43.538;-5.708;2023-06-22T00:29:23;7.05;;;3.40;;
60233;SDS011;49514;43.538;-5.708;2023-06-22T00:31:49;8.10;;;3.10;;
60233;SDS011;49514;43.538;-5.708;2023-06-22T00:34:17;7.07;;;3.20;;
60233;SDS011;49514;43.538;-5.708;2023-06-22T00:36:44;6.40;;;3.00;;
60233;SDS011;49514;43.538;-5.708;2023-06-22T00:39:10;8.82;;;3.10;;
60233;SDS011;49514;43.538;-5.708;2023-06-22T00:41:37;8.90;;;3.42;;
60233;SDS011;49514;43.538;-5.708;2023-06-22T00:44:04;7.70;;;3.10;;
60233;SDS011;49514;43.538;-5.708;2023-06-22T00:46:32;8.43;;;3.20;;
60233;SDS011;49514;43.538;-5.708;2023-06-22T00:48:59;6.13;;;2.88;;
60233;SDS011;49514;43.538;-5.708;2023-06-22T00:51:27;9.85;;;3.25;;
60233;SDS011;49514;43.538;-5.708;2023-06-22T00:53:54;4.50;;;2.23;;
60233;SDS011;49514;43.538;-5.708;2023-06-22T00:56:22;5.90;;;2.20;;
60233;SDS011;49514;43.538;-5.708;2023-06-22T00:58:50;6.78;;;2.50;;
60233;SDS011;49514;43.538;-5.708;2023-06-22T01:01:18;7.57;;;2.72;;
60233;SDS011;49514;43.538;-5.708;2023-06-22T01:03:49;8.50;;;2.70;;
60233;SDS011;49514;43.538;-5.708;2023-06-22T01:06:19;7.93;;;2.93;;
60233;SDS011;49514;43.538;-5.708;2023-06-22T01:09:00;6.13;;;2.60;;
60233;SDS011;49514;43.538;-5.708;2023-06-22T01:11:41;7.05;;;2.78;;
60233;SDS011;49514;43.538;-5.708;2023-06-22T01:14:24;6.72;;;2.80;;
60233;SDS011;49514;43.538;-5.708;2023-06-22T01:17:01;6.70;;;2.90;;
60233;SDS011;49514;43.538;-5.708;2023-06-22T01:22:07;9.17;;;2.90;;
60233;SDS011;49514;43.538;-5.708;2023-06-22T01:24:41;10.05;;;3.10;;
60233;SDS011;49514;43.538;-5.708;2023-06-22T01:29:57;10.38;;;3.13;;
60233;SDS011;49514;43.538;-5.708;2023-06-22T01:32:29;8.50;;;2.63;;
60233;SDS011;49514;43.538;-5.708;2023-06-22T01:34:59;6.20;;;2.50;;
60233;SDS011;49514;43.538;-5.708;2023-06-22T01:37:30;6.97;;;2.70;;
60233;SDS011;49514;43.538;-5.708;2023-06-22T01:39:58;6.38;;;2.88;;
60233;SDS011;49514;43.538;-5.708;2023-06-22T01:42:25;8.35;;;3.00;;
60233;SDS011;49514;43.538;-5.708;2023-06-22T01:44:53;8.43;;;2.90;;
60233;SDS011;49514;43.538;-5.708;2023-06-22T01:47:23;6.30;;;2.90;;
60233;SDS011;49514;43.538;-5.708;2023-06-22T01:49:51;8.07;;;3.20;;
60233;SDS011;49514;43.538;-5.708;2023-06-22T01:52:20;6.88;;;3.03;;
60233;SDS011;49514;43.538;-5.708;2023-06-22T01:54:47;7.07;;;2.80;;
60233;SDS011;49514;43.538;-5.708;2023-06-22T01:57:14;5.85;;;2.67;;
60233;SDS011;49514;43.538;-5.708;2023-06-22T02:02:13;6.57;;;2.50;;
60233;SDS011;49514;43.538;-5.708;2023-06-22T02:04:44;6.10;;;2.60;;
60233;SDS011;49514;43.538;-5.708;2023-06-22T02:07:15;6.43;;;2.40;;
60233;SDS011;49514;43.538;-5.708;2023-06-22T02:09:44;6.77;;;2.37;;
60233;SDS011;49514;43.538;-5.708;2023-06-22T02:12:13;5.70;;;2.20;;
60233;SDS011;49514;43.538;-5.708;2023-06-22T02:14:47;6.90;;;2.50;;
60233;SDS011;49514;43.538;-5.708;2023-06-22T02:17:15;6.90;;;2.80;;
60233;SDS011;49514;43.538;-5.708;2023-06-22T02:19:43;8.70;;;2.92;;
60233;SDS011;49514;43.538;-5.708;2023-06-22T02:22:10;7.00;;;2.75;;
60233;SDS011;49514;43.538;-5.708;2023-06-22T02:24:38;11.13;;;3.00;;
60233;SDS011;49514;43.538;-5.708;2023-06-22T02:27:05;7.70;;;2.70;;
60233;SDS011;49514;43.538;-5.708;2023-06-22T02:29:33;6.97;;;2.78;;
60233;SDS011;49514;43.538;-5.708;2023-06-22T02:31:59;8.40;;;3.10;;
60233;SDS011;49514;43.538;-5.708;2023-06-22T02:34:26;7.28;;;2.92;;
60233;SDS011;49514;43.538;-5.708;2023-06-22T02:36:52;7.35;;;2.80;;
60233;SDS011;49514;43.538;-5.708;2023-06-22T02:39:20;7.97;;;2.60;;
60233;SDS011;49514;43.538;-5.708;2023-06-22T02:41:53;6.50;;;2.70;;
60233;SDS011;49514;43.538;-5.708;2023-06-22T02:44:22;5.88;;;2.78;;
60233;SDS011;49514;43.538;-5.708;2023-06-22T02:46:48;5.30;;;2.50;;
60233;SDS011;49514;43.538;-5.708;2023-06-22T02:49:16;5.95;;;2.70;;
60233;SDS011;49514;43.538;-5.708;2023-06-22T02:51:48;8.50;;;2.65;;
60233;SDS011;49514;43.538;-5.708;2023-06-22T02:54:18;4.85;;;1.80;;
60233;SDS011;49514;43.538;-5.708;2023-06-22T02:56:47;3.33;;;1.80;;
60233;SDS011;49514;43.538;-5.708;2023-06-22T02:59:14;4.32;;;1.60;;
60233;SDS011;49514;43.538;-5.708;2023-06-22T03:01:41;2.67;;;1.30;;
60233;SDS011;49514;43.538;-5.708;2023-06-22T03:04:22;2.97;;;1.58;;
60233;SDS011;49514;43.538;-5.708;2023-06-22T03:06:48;4.30;;;1.50;;
60233;SDS011;49514;43.538;-5.708;2023-06-22T03:09:17;2.87;;;1.70;;
60233;SDS011;49514;43.538;-5.708;2023-06-22T03:11:44;3.65;;;1.65;;
60233;SDS011;49514;43.538;-5.708;2023-06-22T03:14:11;4.00;;;1.60;;
60233;SDS011;49514;43.538;-5.708;2023-06-22T03:16:38;2.60;;;1.48;;
60233;SDS011;49514;43.538;-5.708;2023-06-22T03:19:06;4.07;;;1.70;;
60233;SDS011;49514;43.538;-5.708;2023-06-22T03:21:33;3.43;;;1.83;;
60233;SDS011;49514;43.538;-5.708;2023-06-22T03:24:00;2.90;;;1.70;;
60233;SDS011;49514;43.538;-5.708;2023-06-22T03:26:27;3.53;;;1.80;;
60233;SDS011;49514;43.538;-5.708;2023-06-22T03:28:53;4.20;;;1.88;;
60233;SDS011;49514;43.538;-5.708;2023-06-22T03:31:21;3.25;;;1.80;;
60233;SDS011;49514;43.538;-5.708;2023-06-22T03:33:49;4.80;;;1.95;;
60233;SDS011;49514;43.538;-5.708;2023-06-22T03:36:16;2.50;;;1.50;;
60233;SDS011;49514;43.538;-5.708;2023-06-22T03:38:47;3.28;;;1.88;;
60233;SDS011;49514;43.538;-5.708;2023-06-22T03:41:14;3.70;;;1.90;;
60233;SDS011;49514;43.538;-5.708;2023-06-22T03:43:41;3.70;;;1.80;;
60233;SDS011;49514;43.538;-5.708;2023-06-22T03:46:08;3.25;;;1.85;;
60233;SDS011;49514;43.538;-5.708;2023-06-22T03:48:35;3.27;;;1.97;;
60233;SDS011;49514;43.538;-5.708;2023-06-22T03:51:02;5.10;;;2.08;;
60233;SDS011;49514;43.538;-5.708;2023-06-22T03:53:29;3.47;;;2.00;;
60233;SDS011;49514;43.538;-5.708;2023-06-22T03:55:55;3.60;;;1.90;;
60233;SDS011;49514;43.538;-5.708;2023-06-22T03:58:22;3.78;;;1.80;;
60233;SDS011;49514;43.538;-5.708;2023-06-22T04:00:49;3.97;;;1.80;;
60233;SDS011;49514;43.538;-5.708;2023-06-22T04:03:17;4.53;;;2.00;;
60233;SDS011;49514;43.538;-5.708;2023-06-22T04:05:44;2.75;;;1.80;;
60233;SDS011;49514;43.538;-5.708;2023-06-22T04:08:12;3.57;;;1.90;;
60233;SDS011;49514;43.538;-5.708;2023-06-22T04:10:40;3.20;;;1.73;;
60233;SDS011;49514;43.538;-5.708;2023-06-22T04:13:06;2.73;;;1.90;;
60233;SDS011;49514;43.538;-5.708;2023-06-22T04:15:33;3.53;;;2.00;;
60233;SDS011;49514;43.538;-5.708;2023-06-22T04:18:00;3.35;;;1.85;;
60233;SDS011;49514;43.538;-5.708;2023-06-22T04:20:26;4.65;;;1.92;;
60233;SDS011;49514;43.538;-5.708;2023-06-22T04:22:53;3.58;;;1.90;;
60233;SDS011;49514;43.538;-5.708;2023-06-22T04:25:20;3.05;;;1.90;;
60233;SDS011;49514;43.538;-5.708;2023-06-22T04:27:48;3.60;;;1.90;;
60233;SDS011;49514;43.538;-5.708;2023-06-22T04:30:14;3.28;;;1.92;;
60233;SDS011;49514;43.538;-5.708;2023-06-22T04:32:42;3.10;;;2.30;;
60233;SDS011;49514;43.538;-5.708;2023-06-22T04:35:10;3.08;;;2.10;;
60233;SDS011;49514;43.538;-5.708;2023-06-22T04:37:37;3.47;;;1.80;;
60233;SDS011;49514;43.538;-5.708;2023-06-22T04:40:05;2.45;;;1.90;;
60233;SDS011;49514;43.538;-5.708;2023-06-22T04:42:33;3.70;;;1.80;;
60233;SDS011;49514;43.538;-5.708;2023-06-22T04:45:01;2.90;;;1.80;;
60233;SDS011;49514;43.538;-5.708;2023-06-22T04:47:28;3.72;;;1.90;;
60233;SDS011;49514;43.538;-5.708;2023-06-22T04:49:54;3.17;;;1.70;;
60233;SDS011;49514;43.538;-5.708;2023-06-22T04:52:21;2.80;;;1.80;;
60233;SDS011;49514;43.538;-5.708;2023-06-22T04:54:48;2.65;;;1.60;;
60233;SDS011;49514;43.538;-5.708;2023-06-22T04:57:16;2.50;;;1.77;;
60233;SDS011;49514;43.538;-5.708;2023-06-22T04:59:43;2.40;;;1.50;;
60233;SDS011;49514;43.538;-5.708;2023-06-22T05:02:10;2.20;;;1.40;;
60233;SDS011;49514;43.538;-5.708;2023-06-22T05:04:36;2.47;;;1.52;;
60233;SDS011;49514;43.538;-5.708;2023-06-22T05:07:06;3.35;;;1.60;;
60233;SDS011;49514;43.538;-5.708;2023-06-22T05:09:33;3.08;;;1.55;;
60233;SDS011;49514;43.538;-5.708;2023-06-22T05:12:00;2.92;;;1.50;;
60233;SDS011;49514;43.538;-5.708;2023-06-22T05:14:31;2.58;;;1.60;;
60233;SDS011;49514;43.538;-5.708;2023-06-22T05:16:58;2.60;;;1.60;;
60233;SDS011;49514;43.538;-5.708;2023-06-22T05:19:24;2.83;;;1.60;;
60233;SDS011;49514;43.538;-5.708;2023-06-22T05:21:57;3.43;;;1.83;;
60233;SDS011;49514;43.538;-5.708;2023-06-22T05:24:23;4.15;;;1.75;;
60233;SDS011;49514;43.538;-5.708;2023-06-22T05:26:50;2.90;;;1.70;;
60233;SDS011;49514;43.538;-5.708;2023-06-22T05:29:16;3.20;;;1.90;;
60233;SDS011;49514;43.538;-5.708;2023-06-22T05:31:43;2.75;;;1.80;;
60233;SDS011;49514;43.538;-5.708;2023-06-22T05:34:10;2.63;;;1.70;;
60233;SDS011;49514;43.538;-5.708;2023-06-22T05:36:36;3.60;;;1.85;;
60233;SDS011;49514;43.538;-5.708;2023-06-22T05:39:10;3.17;;;1.77;;
60233;SDS011;49514;43.538;-5.708;2023-06-22T05:41:39;3.10;;;1.80;;
60233;SDS011;49514;43.538;-5.708;2023-06-22T05:44:06;5.05;;;1.80;;
60233;SDS011;49514;43.538;-5.708;2023-06-22T05:46:33;5.88;;;1.98;;
60233;SDS011;49514;43.538;-5.708;2023-06-22T05:48:59;3.75;;;1.75;;
60233;SDS011;49514;43.538;-5.708;2023-06-22T05:51:26;3.00;;;1.73;;
60233;SDS011;49514;43.538;-5.708;2023-06-22T05:53:53;3.70;;;1.80;;
60233;SDS011;49514;43.538;-5.708;2023-06-22T05:56:19;3.10;;;1.80;;
60233;SDS011;49514;43.538;-5.708;2023-06-22T05:58:46;3.60;;;1.90;;
60233;SDS011;49514;43.538;-5.708;2023-06-22T06:01:13;2.88;;;1.58;;
60233;SDS011;49514;43.538;-5.708;2023-06-22T06:03:41;4.20;;;1.67;;
60233;SDS011;49514;43.538;-5.708;2023-06-22T06:06:08;2.97;;;1.67;;
60233;SDS011;49514;43.538;-5.708;2023-06-22T06:08:39;3.55;;;1.60;;
60233;SDS011;49514;43.538;-5.708;2023-06-22T06:11:06;2.60;;;1.45;;
60233;SDS011;49514;43.538;-5.708;2023-06-22T06:13:33;2.28;;;1.50;;
60233;SDS011;49514;43.538;-5.708;2023-06-22T06:16:00;3.20;;;1.77;;
60233;SDS011;49514;43.538;-5.708;2023-06-22T06:18:27;6.10;;;1.80;;
60233;SDS011;49514;43.538;-5.708;2023-06-22T06:20:54;3.03;;;1.50;;
60233;SDS011;49514;43.538;-5.708;2023-06-22T06:23:20;3.33;;;1.40;;
60233;SDS011;49514;43.538;-5.708;2023-06-22T06:25:47;3.42;;;1.50;;
60233;SDS011;49514;43.538;-5.708;2023-06-22T06:28:14;2.13;;;1.50;;
60233;SDS011;49514;43.538;-5.708;2023-06-22T06:30:40;2.20;;;1.48;;
60233;SDS011;49514;43.538;-5.708;2023-06-22T06:33:07;2.67;;;1.50;;
60233;SDS011;49514;43.538;-5.708;2023-06-22T06:35:34;2.97;;;1.60;;
60233;SDS011;49514;43.538;-5.708;2023-06-22T06:38:01;2.27;;;1.40;;
60233;SDS011;49514;43.538;-5.708;2023-06-22T06:40:28;3.03;;;1.50;;
60233;SDS011;49514;43.538;-5.708;2023-06-22T06:42:55;3.40;;;1.50;;
60233;SDS011;49514;43.538;-5.708;2023-06-22T06:45:22;2.78;;;1.67;;
60233;SDS011;49514;43.538;-5.708;2023-06-22T06:47:50;4.28;;;1.60;;
60233;SDS011;49514;43.538;-5.708;2023-06-22T06:50:18;5.10;;;2.33;;
60233;SDS011;49514;43.538;-5.708;2023-06-22T06:52:45;6.18;;;3.20;;
60233;SDS011;49514;43.538;-5.708;2023-06-22T06:55:11;8.07;;;3.45;;
60233;SDS011;49514;43.538;-5.708;2023-06-22T06:57:38;5.15;;;3.20;;
60233;SDS011;49514;43.538;-5.708;2023-06-22T07:00:06;7.90;;;3.55;;
60233;SDS011;49514;43.538;-5.708;2023-06-22T07:02:38;4.95;;;3.03;;
60233;SDS011;49514;43.538;-5.708;2023-06-22T07:05:09;5.30;;;2.70;;
60233;SDS011;49514;43.538;-5.708;2023-06-22T07:07:37;6.18;;;3.50;;
60233;SDS011;49514;43.538;-5.708;2023-06-22T07:10:04;5.88;;;3.00;;
60233;SDS011;49514;43.538;-5.708;2023-06-22T07:12:32;5.63;;;2.42;;
60233;SDS011;49514;43.538;-5.708;2023-06-22T07:15:02;5.10;;;2.83;;
60233;SDS011;49514;43.538;-5.708;2023-06-22T07:17:37;6.93;;;2.70;;
60233;SDS011;49514;43.538;-5.708;2023-06-22T07:20:06;8.13;;;2.97;;
60233;SDS011;49514;43.538;-5.708;2023-06-22T07:22:38;8.55;;;3.45;;
60233;SDS011;49514;43.538;-5.708;2023-06-22T07:25:06;8.50;;;3.38;;
60233;SDS011;49514;43.538;-5.708;2023-06-22T07:27:43;8.65;;;3.60;;
60233;SDS011;49514;43.538;-5.708;2023-06-22T07:30:11;8.30;;;3.53;;
60233;SDS011;49514;43.538;-5.708;2023-06-22T07:32:39;9.93;;;4.10;;
60233;SDS011;49514;43.538;-5.708;2023-06-22T07:35:06;9.10;;;4.22;;
60233;SDS011;49514;43.538;-5.708;2023-06-22T07:37:33;8.47;;;4.10;;
60233;SDS011;49514;43.538;-5.708;2023-06-22T07:40:00;9.00;;;3.60;;
60233;SDS011;49514;43.538;-5.708;2023-06-22T07:42:30;8.70;;;3.60;;
60233;SDS011;49514;43.538;-5.708;2023-06-22T07:44:58;11.07;;;3.63;;
60233;SDS011;49514;43.538;-5.708;2023-06-22T07:47:25;9.25;;;3.50;;
60233;SDS011;49514;43.538;-5.708;2023-06-22T07:49:58;10.15;;;3.50;;
60233;SDS011;49514;43.538;-5.708;2023-06-22T07:52:27;8.18;;;3.30;;
60233;SDS011;49514;43.538;-5.708;2023-06-22T07:54:55;8.47;;;3.00;;
60233;SDS011;49514;43.538;-5.708;2023-06-22T07:57:21;7.38;;;2.50;;
60233;SDS011;49514;43.538;-5.708;2023-06-22T07:59:48;6.80;;;2.45;;
60233;SDS011;49514;43.538;-5.708;2023-06-22T08:02:15;4.68;;;2.20;;
60233;SDS011;49514;43.538;-5.708;2023-06-22T08:04:41;7.10;;;2.40;;
60233;SDS011;49514;43.538;-5.708;2023-06-22T08:07:08;5.90;;;2.20;;
60233;SDS011;49514;43.538;-5.708;2023-06-22T08:09:35;5.38;;;2.47;;
60233;SDS011;49514;43.538;-5.708;2023-06-22T08:12:02;6.32;;;2.67;;
60233;SDS011;49514;43.538;-5.708;2023-06-22T08:14:29;4.75;;;2.33;;
60233;SDS011;49514;43.538;-5.708;2023-06-22T08:16:56;4.10;;;2.05;;
60233;SDS011;49514;43.538;-5.708;2023-06-22T08:19:23;3.83;;;2.10;;
60233;SDS011;49514;43.538;-5.708;2023-06-22T08:21:50;5.03;;;2.60;;
60233;SDS011;49514;43.538;-5.708;2023-06-22T08:24:16;3.47;;;1.90;;
60233;SDS011;49514;43.538;-5.708;2023-06-22T08:26:43;2.38;;;1.40;;
60233;SDS011;49514;43.538;-5.708;2023-06-22T08:29:09;3.13;;;1.55;;
60233;SDS011;49514;43.538;-5.708;2023-06-22T08:31:36;2.88;;;1.50;;
60233;SDS011;49514;43.538;-5.708;2023-06-22T08:34:03;3.28;;;1.50;;
60233;SDS011;49514;43.538;-5.708;2023-06-22T08:36:29;2.63;;;1.58;;
60233;SDS011;49514;43.538;-5.708;2023-06-22T08:38:58;2.72;;;1.52;;
60233;SDS011;49514;43.538;-5.708;2023-06-22T08:41:27;3.10;;;1.45;;
60233;SDS011;49514;43.538;-5.708;2023-06-22T08:43:53;3.70;;;1.90;;
60233;SDS011;49514;43.538;-5.708;2023-06-22T08:46:20;3.33;;;1.80;;
60233;SDS011;49514;43.538;-5.708;2023-06-22T08:48:49;3.90;;;2.60;;
60233;SDS011;49514;43.538;-5.708;2023-06-22T08:51:16;3.53;;;1.73;;
60233;SDS011;49514;43.538;-5.708;2023-06-22T08:53:43;3.53;;;1.50;;
60233;SDS011;49514;43.538;-5.708;2023-06-22T08:56:11;4.30;;;1.60;;
60233;SDS011;49514;43.538;-5.708;2023-06-22T08:58:37;4.35;;;2.15;;
60233;SDS011;49514;43.538;-5.708;2023-06-22T09:01:04;4.85;;;2.22;;
60233;SDS011;49514;43.538;-5.708;2023-06-22T09:03:30;4.47;;;2.25;;
60233;SDS011;49514;43.538;-5.708;2023-06-22T09:05:58;4.07;;;1.60;;
60233;SDS011;49514;43.538;-5.708;2023-06-22T09:08:25;4.60;;;1.80;;
60233;SDS011;49514;43.538;-5.708;2023-06-22T09:10:53;3.35;;;2.00;;
60233;SDS011;49514;43.538;-5.708;2023-06-22T09:13:20;5.20;;;2.20;;
60233;SDS011;49514;43.538;-5.708;2023-06-22T09:15:48;7.45;;;2.15;;
60233;SDS011;49514;43.538;-5.708;2023-06-22T09:18:14;6.37;;;2.20;;
60233;SDS011;49514;43.538;-5.708;2023-06-22T09:20:41;6.90;;;2.70;;
60233;SDS011;49514;43.538;-5.708;2023-06-22T09:23:08;7.03;;;2.70;;
60233;SDS011;49514;43.538;-5.708;2023-06-22T09:25:34;6.72;;;2.60;;
60233;SDS011;49514;43.538;-5.708;2023-06-22T09:28:01;5.45;;;2.10;;
60233;SDS011;49514;43.538;-5.708;2023-06-22T09:30:28;6.30;;;3.03;;
60233;SDS011;49514;43.538;-5.708;2023-06-22T09:32:54;4.72;;;2.15;;
60233;SDS011;49514;43.538;-5.708;2023-06-22T09:35:21;3.63;;;1.70;;
60233;SDS011;49514;43.538;-5.708;2023-06-22T09:37:47;6.10;;;1.93;;
60233;SDS011;49514;43.538;-5.708;2023-06-22T09:40:14;7.05;;;1.92;;
60233;SDS011;49514;43.538;-5.708;2023-06-22T09:42:42;4.70;;;1.73;;
60233;SDS011;49514;43.538;-5.708;2023-06-22T09:45:09;6.32;;;2.05;;
60233;SDS011;49514;43.538;-5.708;2023-06-22T09:47:36;5.53;;;2.17;;
60233;SDS011;49514;43.538;-5.708;2023-06-22T09:50:03;7.83;;;2.43;;
60233;SDS011;49514;43.538;-5.708;2023-06-22T09:52:30;8.25;;;3.90;;
60233;SDS011;49514;43.538;-5.708;2023-06-22T09:54:57;6.33;;;2.20;;
60233;SDS011;49514;43.538;-5.708;2023-06-22T09:57:24;9.95;;;2.95;;
60233;SDS011;49514;43.538;-5.708;2023-06-22T09:59:50;8.55;;;2.88;;
60233;SDS011;49514;43.538;-5.708;2023-06-22T10:02:17;7.35;;;2.58;;
60233;SDS011;49514;43.538;-5.708;2023-06-22T10:04:44;7.17;;;2.20;;
60233;SDS011;49514;43.538;-5.708;2023-06-22T10:07:10;7.18;;;2.15;;
60233;SDS011;49514;43.538;-5.708;2023-06-22T10:09:37;6.10;;;2.40;;
60233;SDS011;49514;43.538;-5.708;2023-06-22T10:12:04;5.00;;;2.10;;
60233;SDS011;49514;43.538;-5.708;2023-06-22T10:14:31;6.70;;;2.53;;
60233;SDS011;49514;43.538;-5.708;2023-06-22T10:16:57;6.72;;;2.70;;
60233;SDS011;49514;43.538;-5.708;2023-06-22T10:19:24;4.83;;;2.00;;
60233;SDS011;49514;43.538;-5.708;2023-06-22T10:21:51;6.47;;;2.50;;
60233;SDS011;49514;43.538;-5.708;2023-06-22T10:24:17;12.43;;;3.10;;
60233;SDS011;49514;43.538;-5.708;2023-06-22T10:26:44;10.57;;;3.72;;
60233;SDS011;49514;43.538;-5.708;2023-06-22T10:29:11;7.03;;;2.95;;
60233;SDS011;49514;43.538;-5.708;2023-06-22T10:31:37;5.90;;;1.90;;
60233;SDS011;49514;43.538;-5.708;2023-06-22T10:34:04;5.88;;;2.33;;
60233;SDS011;49514;43.538;-5.708;2023-06-22T10:36:31;5.95;;;2.13;;
60233;SDS011;49514;43.538;-5.708;2023-06-22T10:38:57;5.35;;;2.17;;
60233;SDS011;49514;43.538;-5.708;2023-06-22T10:41:25;8.80;;;2.90;;
60233;SDS011;49514;43.538;-5.708;2023-06-22T10:43:52;6.82;;;2.65;;
60233;SDS011;49514;43.538;-5.708;2023-06-22T10:46:18;7.18;;;2.70;;
60233;SDS011;49514;43.538;-5.708;2023-06-22T10:48:45;5.73;;;2.60;;
60233;SDS011;49514;43.538;-5.708;2023-06-22T10:51:12;4.80;;;2.13;;
60233;SDS011;49514;43.538;-5.708;2023-06-22T10:53:38;5.05;;;2.28;;
60233;SDS011;49514;43.538;-5.708;2023-06-22T10:56:05;5.40;;;2.17;;
60233;SDS011;49514;43.538;-5.708;2023-06-22T10:58:32;15.52;;;2.90;;
60233;SDS011;49514;43.538;-5.708;2023-06-22T11:00:58;6.60;;;2.20;;
60233;SDS011;49514;43.538;-5.708;2023-06-22T11:03:25;6.18;;;2.50;;
60233;SDS011;49514;43.538;-5.708;2023-06-22T11:05:52;4.13;;;1.80;;
60233;SDS011;49514;43.538;-5.708;2023-06-22T11:08:18;4.68;;;1.60;;
60233;SDS011;49514;43.538;-5.708;2023-06-22T11:10:47;3.03;;;1.38;;
60233;SDS011;49514;43.538;-5.708;2023-06-22T11:13:14;2.53;;;1.30;;
60233;SDS011;49514;43.538;-5.708;2023-06-22T11:15:40;2.70;;;1.33;;
60233;SDS011;49514;43.538;-5.708;2023-06-22T11:18:07;3.90;;;1.60;;
60233;SDS011;49514;43.538;-5.708;2023-06-22T11:20:34;2.63;;;1.30;;
60233;SDS011;49514;43.538;-5.708;2023-06-22T11:23:07;2.28;;;1.50;;
60233;SDS011;49514;43.538;-5.708;2023-06-22T11:25:34;2.92;;;1.88;;
60233;SDS011;49514;43.538;-5.708;2023-06-22T11:28:01;4.75;;;1.50;;
60233;SDS011;49514;43.538;-5.708;2023-06-22T11:30:29;3.70;;;1.40;;
60233;SDS011;49514;43.538;-5.708;2023-06-22T11:32:56;5.70;;;1.48;;
60233;SDS011;49514;43.538;-5.708;2023-06-22T11:35:25;3.72;;;1.45;;
60233;SDS011;49514;43.538;-5.708;2023-06-22T11:37:52;1.83;;;1.30;;
60233;SDS011;49514;43.538;-5.708;2023-06-22T11:40:18;2.00;;;1.20;;
60233;SDS011;49514;43.538;-5.708;2023-06-22T11:42:45;3.55;;;1.33;;
60233;SDS011;49514;43.538;-5.708;2023-06-22T11:45:12;3.63;;;1.40;;
60233;SDS011;49514;43.538;-5.708;2023-06-22T11:47:39;2.50;;;1.30;;
60233;SDS011;49514;43.538;-5.708;2023-06-22T11:50:06;2.95;;;1.20;;
60233;SDS011;49514;43.538;-5.708;2023-06-22T11:52:33;3.30;;;1.37;;
60233;SDS011;49514;43.538;-5.708;2023-06-22T11:55:02;2.25;;;1.25;;
60233;SDS011;49514;43.538;-5.708;2023-06-22T11:57:33;3.10;;;1.20;;
60233;SDS011;49514;43.538;-5.708;2023-06-22T12:00:00;2.40;;;1.30;;
60233;SDS011;49514;43.538;-5.708;2023-06-22T12:02:32;3.72;;;1.88;;
60233;SDS011;49514;43.538;-5.708;2023-06-22T12:04:59;3.33;;;1.60;;
60233;SDS011;49514;43.538;-5.708;2023-06-22T12:07:26;4.73;;;1.30;;
60233;SDS011;49514;43.538;-5.708;2023-06-22T12:09:52;3.03;;;1.45;;
60233;SDS011;49514;43.538;-5.708;2023-06-22T12:12:19;3.03;;;1.35;;
60233;SDS011;49514;43.538;-5.708;2023-06-22T12:14:46;2.40;;;1.20;;
60233;SDS011;49514;43.538;-5.708;2023-06-22T12:17:12;3.65;;;1.20;;
60233;SDS011;49514;43.538;-5.708;2023-06-22T12:19:39;3.60;;;1.20;;
60233;SDS011;49514;43.538;-5.708;2023-06-22T12:22:05;2.97;;;1.50;;
60233;SDS011;49514;43.538;-5.708;2023-06-22T12:24:32;3.05;;;1.30;;
60233;SDS011;49514;43.538;-5.708;2023-06-22T12:26:59;3.15;;;1.10;;
60233;SDS011;49514;43.538;-5.708;2023-06-22T12:29:25;3.47;;;1.30;;
60233;SDS011;49514;43.538;-5.708;2023-06-22T12:31:52;3.53;;;1.58;;
60233;SDS011;49514;43.538;-5.708;2023-06-22T12:34:19;3.45;;;1.90;;
60233;SDS011;49514;43.538;-5.708;2023-06-22T12:36:45;2.87;;;1.20;;
60233;SDS011;49514;43.538;-5.708;2023-06-22T12:39:14;2.30;;;1.30;;
60233;SDS011;49514;43.538;-5.708;2023-06-22T12:41:41;3.50;;;1.00;;
60233;SDS011;49514;43.538;-5.708;2023-06-22T12:44:07;3.05;;;1.30;;
60233;SDS011;49514;43.538;-5.708;2023-06-22T12:46:34;1.80;;;1.10;;
60233;SDS011;49514;43.538;-5.708;2023-06-22T12:49:03;2.45;;;1.35;;
60233;SDS011;49514;43.538;-5.708;2023-06-22T12:51:30;3.10;;;1.10;;
60233;SDS011;49514;43.538;-5.708;2023-06-22T12:53:57;2.95;;;1.23;;
60233;SDS011;49514;43.538;-5.708;2023-06-22T12:56:24;2.07;;;1.20;;
60233;SDS011;49514;43.538;-5.708;2023-06-22T12:58:51;1.80;;;1.02;;
60233;SDS011;49514;43.538;-5.708;2023-06-22T13:01:17;3.17;;;1.00;;
60233;SDS011;49514;43.538;-5.708;2023-06-22T13:03:44;3.25;;;1.30;;
60233;SDS011;49514;43.538;-5.708;2023-06-22T13:06:11;2.47;;;1.10;;
60233;SDS011;49514;43.538;-5.708;2023-06-22T13:08:37;2.25;;;1.13;;
60233;SDS011;49514;43.538;-5.708;2023-06-22T13:11:04;3.13;;;1.40;;
60233;SDS011;49514;43.538;-5.708;2023-06-22T13:13:31;2.93;;;1.27;;
60233;SDS011;49514;43.538;-5.708;2023-06-22T13:15:59;1.95;;;1.13;;
60233;SDS011;49514;43.538;-5.708;2023-06-22T13:18:27;2.58;;;1.00;;
60233;SDS011;49514;43.538;-5.708;2023-06-22T13:20:54;3.30;;;1.17;;
60233;SDS011;49514;43.538;-5.708;2023-06-22T13:23:21;2.63;;;1.10;;
60233;SDS011;49514;43.538;-5.708;2023-06-22T13:25:48;2.70;;;1.00;;
60233;SDS011;49514;43.538;-5.708;2023-06-22T13:28:15;1.95;;;1.00;;
60233;SDS011;49514;43.538;-5.708;2023-06-22T13:30:42;1.30;;;0.80;;
60233;SDS011;49514;43.538;-5.708;2023-06-22T13:33:11;2.20;;;1.00;;
60233;SDS011;49514;43.538;-5.708;2023-06-22T13:35:38;2.40;;;1.03;;
60233;SDS011;49514;43.538;-5.708;2023-06-22T13:38:05;1.88;;;0.95;;
60233;SDS011;49514;43.538;-5.708;2023-06-22T13:40:32;2.65;;;0.80;;
60233;SDS011;49514;43.538;-5.708;2023-06-22T13:42:59;1.90;;;0.95;;
60233;SDS011;49514;43.538;-5.708;2023-06-22T13:45:26;2.15;;;1.00;;
60233;SDS011;49514;43.538;-5.708;2023-06-22T13:47:53;3.35;;;0.82;;
60233;SDS011;49514;43.538;-5.708;2023-06-22T13:50:20;2.70;;;1.00;;
60233;SDS011;49514;43.538;-5.708;2023-06-22T13:52:46;2.22;;;0.85;;
60233;SDS011;49514;43.538;-5.708;2023-06-22T13:55:13;2.92;;;0.80;;
60233;SDS011;49514;43.538;-5.708;2023-06-22T13:57:40;2.25;;;0.95;;
60233;SDS011;49514;43.538;-5.708;2023-06-22T14:00:07;1.38;;;0.70;;
60233;SDS011;49514;43.538;-5.708;2023-06-22T14:02:40;1.60;;;1.08;;
60233;SDS011;49514;43.538;-5.708;2023-06-22T14:05:07;2.35;;;0.80;;
60233;SDS011;49514;43.538;-5.708;2023-06-22T14:07:34;1.67;;;0.70;;
60233;SDS011;49514;43.538;-5.708;2023-06-22T14:10:02;1.45;;;0.80;;
60233;SDS011;49514;43.538;-5.708;2023-06-22T14:12:29;1.90;;;0.77;;
60233;SDS011;49514;43.538;-5.708;2023-06-22T14:14:56;1.23;;;0.73;;
60233;SDS011;49514;43.538;-5.708;2023-06-22T14:17:23;1.70;;;0.77;;
60233;SDS011;49514;43.538;-5.708;2023-06-22T14:19:52;3.17;;;0.80;;
60233;SDS011;49514;43.538;-5.708;2023-06-22T14:22:19;2.45;;;0.98;;
60233;SDS011;49514;43.538;-5.708;2023-06-22T14:24:49;2.17;;;0.85;;
60233;SDS011;49514;43.538;-5.708;2023-06-22T14:27:16;2.15;;;0.95;;
60233;SDS011;49514;43.538;-5.708;2023-06-22T14:29:43;3.38;;;1.08;;
60233;SDS011;49514;43.538;-5.708;2023-06-22T14:32:10;1.88;;;0.93;;
60233;SDS011;49514;43.538;-5.708;2023-06-22T15:16:14;2.33;;;0.80;;
60233;SDS011;49514;43.538;-5.708;2023-06-22T15:33:22;2.78;;;1.00;;
60233;SDS011;49514;43.538;-5.708;2023-06-22T16:02:46;1.45;;;0.75;;
60233;SDS011;49514;43.538;-5.708;2023-06-22T16:05:13;1.55;;;0.80;;
60233;SDS011;49514;43.538;-5.708;2023-06-22T16:07:40;1.65;;;0.75;;